Time;durP1;ratioP1;P1;durP2;ratioP2;P2;SDS_P1;SDS_P2;PMS_P1;PMS_P2;Temp;Humidity;BMP_temperature;BMP_pressure;BME280_temperature;BME280_humidity;BME280_pressure;Samples;Min_cycle;Max_cycle;Signal;HPM_P1;HPM_P2
2022/07/01 00:00:06;;;;;;;6.43;1.73;;;;;;;15.60;100.00;101260.78;4835465;29;20060;-78
2022/07/01 00:02:40;;;;;;;8.90;2.10;;;;;;;15.53;100.00;101256.44;4855563;29;20247;-78
2022/07/01 00:05:09;;;;;;;12.70;2.10;;;;;;;15.53;100.00;101263.53;4881293;29;20518;-78
2022/07/01 00:07:47;;;;;;;15.35;2.08;;;;;;;15.53;100.00;101259.09;4837857;29;20061;-78
2022/07/01 00:10:15;;;;;;;10.75;2.67;;;;;;;15.56;100.00;101248.44;4860478;29;20046;-78
2022/07/01 00:12:44;;;;;;;9.32;2.17;;;;;;;15.58;100.00;101251.09;4857011;29;20046;-78
2022/07/01 00:15:13;;;;;;;8.85;2.00;;;;;;;15.55;100.00;101259.97;4825616;29;20049;-78
2022/07/01 00:17:43;;;;;;;10.40;2.20;;;;;;;15.55;100.00;101246.69;4862683;29;20050;-77
2022/07/01 00:20:12;;;;;;;8.02;1.75;;;;;;;15.53;100.00;101253.78;4863625;29;20045;-78
2022/07/01 00:22:41;;;;;;;10.15;2.00;;;;;;;15.53;100.00;101269.72;4868268;29;20257;-78
2022/07/01 00:25:09;;;;;;;10.10;1.88;;;;;;;15.51;100.00;101268.00;4842974;29;20052;-77
2022/07/01 00:27:39;;;;;;;10.15;2.30;;;;;;;15.52;100.00;101273.28;4855287;29;20049;-77
2022/07/01 00:30:09;;;;;;;10.07;2.10;;;;;;;15.49;100.00;101265.34;4834155;29;20117;-77
2022/07/01 00:32:38;;;;;;;10.65;1.95;;;;;;;15.48;100.00;101260.94;4845893;29;20538;-79
2022/07/01 00:35:07;;;;;;;8.43;1.77;;;;;;;15.46;100.00;101269.81;4804494;29;20045;-78
2022/07/01 00:37:38;;;;;;;9.40;1.85;;;;;;;15.43;100.00;101268.06;4837372;29;20044;-78
2022/07/01 00:40:07;;;;;;;3.80;1.50;;;;;;;15.37;100.00;101274.31;4868461;29;20077;-78
2022/07/01 00:42:40;;;;;;;4.32;1.38;;;;;;;15.31;100.00;101274.38;4836856;29;20053;-78
2022/07/01 00:45:10;;;;;;;5.63;1.70;;;;;;;15.28;100.00;101268.22;4838183;29;20053;-78
2022/07/01 00:47:40;;;;;;;6.13;1.50;;;;;;;15.27;100.00;101277.06;4801364;29;20041;-78
2022/07/01 00:50:10;;;;;;;4.60;1.95;;;;;;;15.28;100.00;101271.75;4848893;29;20044;-77
2022/07/01 00:52:39;;;;;;;;;;;;;;;15.27;100.00;101277.94;4830119;29;20052;-78
2022/07/01 00:55:10;;;;;;;5.82;1.98;;;;;;;15.28;100.00;101270.88;4871117;29;20382;-78
2022/07/01 00:57:40;;;;;;;5.05;1.85;;;;;;;15.29;100.00;101259.34;4853378;29;20056;-78
2022/07/01 01:00:21;;;;;;;6.90;1.85;;;;;;;15.27;100.00;101263.78;4853915;29;20054;-79
2022/07/01 01:02:50;;;;;;;;;;;;;;;15.26;100.00;101248.78;4829109;29;20675;-78
2022/07/01 01:05:24;;;;;;;4.05;1.42;;;;;;;15.25;100.00;101252.31;4851220;29;19924;-78
2022/07/01 01:07:55;;;;;;;3.30;1.58;;;;;;;15.25;100.00;101257.63;4844916;29;20697;-78
2022/07/01 01:10:25;;;;;;;4.60;1.77;;;;;;;15.22;100.00;101255.88;4837701;29;20049;-78
2022/07/01 01:12:56;;;;;;;7.50;1.50;;;;;;;15.23;100.00;101259.41;4853359;29;20053;-79
2022/07/01 01:15:24;;;;;;;2.50;1.55;;;;;;;15.23;100.00;101270.03;4861030;29;20056;-78
2022/07/01 01:17:53;;;;;;;2.83;1.50;;;;;;;15.20;100.00;101279.78;4848327;29;20038;-78
2022/07/01 01:20:22;;;;;;;5.88;1.73;;;;;;;15.18;100.00;101292.19;4834176;29;20045;-78
2022/07/01 01:22:51;;;;;;;2.97;1.35;;;;;;;15.15;100.00;101308.16;4861095;29;20057;-78
2022/07/01 01:25:19;;;;;;;6.88;1.50;;;;;;;15.14;100.00;101311.72;4865745;29;20045;-79
2022/07/01 01:27:48;;;;;;;2.20;1.30;;;;;;;15.15;100.00;101316.09;4820826;29;20257;-77
2022/07/01 01:30:16;;;;;;;5.53;1.50;;;;;;;15.15;100.00;101308.16;4840372;29;20061;-79
2022/07/01 01:32:45;;;;;;;1.88;1.38;;;;;;;15.16;100.00;101309.00;4817985;29;20180;-79
2022/07/01 01:35:13;;;;;;;3.45;1.52;;;;;;;15.15;100.00;101299.31;4872393;29;20545;-79
2022/07/01 01:37:42;;;;;;;3.63;1.52;;;;;;;15.14;100.00;101287.81;4827401;29;20060;-78
2022/07/01 01:40:13;;;;;;;6.75;1.48;;;;;;;15.17;100.00;101286.91;4854876;29;20049;-79
2022/07/01 01:42:43;;;;;;;2.60;1.55;;;;;;;15.18;100.00;101300.16;4858122;29;20257;-79
2022/07/01 01:45:12;;;;;;;4.93;1.40;;;;;;;15.19;100.00;101293.94;4861382;29;20049;-78
2022/07/01 01:47:41;;;;;;;5.00;1.40;;;;;;;15.20;100.00;101282.44;4826998;29;20078;-78
2022/07/01 01:50:12;;;;;;;3.17;1.50;;;;;;;15.26;100.00;101283.28;4864846;29;20053;-78
2022/07/01 01:52:43;;;;;;;4.78;1.48;;;;;;;15.29;100.00;101278.84;4870514;29;20049;-79
2022/07/01 01:55:12;;;;;;;;;;;;;;;15.29;100.00;101280.59;4857864;29;20068;-77
2022/07/01 01:57:40;;;;;;;2.00;1.10;;;;;;;15.28;100.00;101276.19;4856835;29;19924;-78
2022/07/01 02:00:09;;;;;;;2.03;1.40;;;;;;;15.28;100.00;101273.53;4843750;29;20053;-79
2022/07/01 02:02:41;;;;;;;2.80;1.38;;;;;;;15.26;100.00;101280.63;4822149;29;20069;-79
2022/07/01 02:05:13;;;;;;;2.97;1.40;;;;;;;15.30;100.00;101277.94;4848367;29;20050;-79
2022/07/01 02:07:41;;;;;;;2.35;1.20;;;;;;;15.30;100.00;101283.22;4852742;29;20072;-78
2022/07/01 02:10:10;;;;;;;2.42;1.10;;;;;;;15.33;100.00;101287.63;4852587;29;20045;-78
2022/07/01 02:12:39;;;;;;;2.97;1.50;;;;;;;15.34;100.00;101290.28;4857914;29;20056;-77
2022/07/01 02:15:08;;;;;;;3.78;1.23;;;;;;;15.33;100.00;101291.19;4859077;29;20056;-80
2022/07/01 02:17:36;;;;;;;2.10;1.30;;;;;;;15.33;100.00;101296.50;4830767;29;20068;-79
2022/07/01 02:20:08;;;;;;;3.65;1.50;;;;;;;15.34;100.00;101305.34;4861369;29;20053;-77
2022/07/01 02:22:37;;;;;;;5.50;1.90;;;;;;;15.32;100.00;101317.75;4833605;29;20411;-78
2022/07/01 02:25:06;;;;;;;2.63;1.40;;;;;;;15.32;100.00;101317.75;4843294;29;20061;-78
2022/07/01 02:27:34;;;;;;;4.72;1.20;;;;;;;15.31;100.00;101315.97;4846897;29;20053;-79
2022/07/01 02:30:06;;;;;;;3.13;1.25;;;;;;;15.30;100.00;101319.53;4851206;29;20053;-78
2022/07/01 02:32:35;;;;;;;1.90;1.40;;;;;;;15.29;100.00;101326.63;4840620;29;20400;-78
2022/07/01 02:35:04;;;;;;;2.70;1.90;;;;;;;15.29;100.00;101331.03;4806238;29;20049;-77
2022/07/01 02:37:33;;;;;;;3.88;1.83;;;;;;;15.28;100.00;101338.13;4865329;29;20045;-79
2022/07/01 02:40:02;;;;;;;2.90;2.00;;;;;;;15.25;100.00;101342.59;4857151;29;20049;-78
2022/07/01 02:42:35;;;;;;;3.55;2.08;;;;;;;15.21;100.00;101347.91;4833301;29;20040;-78
2022/07/01 02:45:06;;;;;;;7.03;2.03;;;;;;;15.18;100.00;101353.25;4841058;29;20064;-78
2022/07/01 02:47:36;;;;;;;2.33;2.00;;;;;;;15.16;100.00;101354.13;4852585;29;20054;-77
2022/07/01 02:50:08;;;;;;;1.85;1.75;;;;;;;15.11;100.00;101342.69;4806564;29;20497;-79
2022/07/01 02:52:37;;;;;;;2.80;1.90;;;;;;;15.09;100.00;101358.63;4860875;29;20052;-78
2022/07/01 02:55:09;;;;;;;2.47;1.90;;;;;;;15.09;100.00;101353.31;4843594;29;20120;-78
2022/07/01 02:57:39;;;;;;;2.63;2.30;;;;;;;15.09;100.00;101357.75;4830943;29;20042;-78
2022/07/01 03:00:10;;;;;;;4.05;2.20;;;;;;;15.06;100.00;101369.25;4854547;29;20046;-78
2022/07/01 03:02:39;;;;;;;2.58;2.13;;;;;;;15.06;100.00;101358.66;4851412;29;20056;-78
2022/07/01 03:05:08;;;;;;;4.85;2.17;;;;;;;15.04;100.00;101360.44;4857291;29;20060;-77
2022/07/01 03:07:39;;;;;;;5.90;2.47;;;;;;;15.03;100.00;101366.66;4811668;29;20037;-78
2022/07/01 03:10:08;;;;;;;5.00;2.40;;;;;;;15.00;100.00;101354.25;4855612;29;20046;-79
2022/07/01 03:12:39;;;;;;;4.83;2.50;;;;;;;14.99;100.00;101346.34;4847980;29;20053;-78
2022/07/01 03:15:15;;;;;;;5.32;2.45;;;;;;;14.97;100.00;101341.03;4860013;29;20056;-78
2022/07/01 03:17:45;;;;;;;2.85;1.90;;;;;;;14.98;100.00;101349.88;4852598;29;20049;-78
2022/07/01 03:20:15;;;;;;;4.38;2.38;;;;;;;14.97;100.00;101354.31;4823231;29;20045;-78
2022/07/01 03:22:45;;;;;;;3.35;2.10;;;;;;;14.96;100.00;101349.00;4810572;29;20048;-77
2022/07/01 03:25:14;;;;;;;4.22;2.13;;;;;;;14.95;100.00;101352.53;4840599;29;20050;-78
2022/07/01 03:27:45;;;;;;;2.40;2.20;;;;;;;14.93;100.00;101355.22;4837828;29;20049;-78
2022/07/01 03:30:14;;;;;;;2.97;2.50;;;;;;;14.92;100.00;101361.41;4848148;29;20054;-77
2022/07/01 03:32:43;;;;;;;2.33;2.13;;;;;;;14.89;100.00;101353.44;4821164;29;20072;-78
2022/07/01 03:37:59;;;;;;;2.22;2.13;;;;;;;14.89;100.00;101364.06;4836043;29;20249;-78
2022/07/01 03:40:28;;;;;;;3.47;2.50;;;;;;;14.90;100.00;101363.19;4819237;29;20499;-78
2022/07/01 03:42:59;;;;;;;3.05;2.05;;;;;;;14.89;100.00;101377.34;4840204;29;20577;-78
2022/07/01 03:45:28;;;;;;;4.13;2.70;;;;;;;14.88;100.00;101386.19;4863872;29;20048;-78
2022/07/01 03:47:57;;;;;;;6.18;3.00;;;;;;;14.88;100.00;101390.63;4839733;29;20096;-78
2022/07/01 03:50:26;;;;;;;3.92;2.65;;;;;;;14.90;100.00;101391.50;4854488;29;20053;-78
2022/07/01 03:55:42;;;;;;;8.38;2.78;;;;;;;14.91;100.00;101395.91;4860051;29;20515;-77
2022/07/01 03:58:10;;;;;;;2.97;2.55;;;;;;;14.88;100.00;101402.13;4840780;29;20411;-79
2022/07/01 04:00:39;;;;;;;4.20;2.78;;;;;;;14.88;100.00;101404.78;4828989;29;20049;-79
2022/07/01 04:03:08;;;;;;;4.40;3.22;;;;;;;14.84;100.00;101394.16;4846649;29;20049;-78
2022/07/01 04:05:37;;;;;;;3.95;2.63;;;;;;;14.85;100.00;101390.63;4851587;29;20054;-79
2022/07/01 04:08:07;;;;;;;3.40;2.65;;;;;;;14.84;100.00;101386.22;4818518;29;20046;-80
2022/07/01 04:10:37;;;;;;;5.03;2.75;;;;;;;14.84;100.00;101394.16;4844771;29;20411;-79
2022/07/01 04:13:05;;;;;;;4.15;2.70;;;;;;;14.80;100.00;101388.91;4855148;29;20076;-78
2022/07/01 04:15:54;;;;;;;3.22;2.42;;;;;;;14.81;100.00;101395.09;4820780;29;20245;-79
2022/07/01 04:18:23;;;;;;;4.15;2.75;;;;;;;14.81;100.00;101390.66;4871142;29;20503;-79
2022/07/01 04:23:43;;;;;;;3.55;2.42;;;;;;;14.87;100.00;101402.13;4817643;29;20565;-78
2022/07/01 04:26:11;;;;;;;2.80;2.60;;;;;;;14.89;100.00;101413.59;4832762;29;20057;-78
2022/07/01 04:29:00;;;;;;;7.80;2.75;;;;;;;14.89;100.00;101427.75;4854324;29;20158;-77
2022/07/01 04:31:28;;;;;;;3.75;2.67;;;;;;;14.91;100.00;101425.09;4850255;29;20057;-80
2022/07/01 04:33:57;;;;;;;3.05;2.58;;;;;;;14.92;100.00;101425.09;4837162;29;20053;-77
2022/07/01 04:36:26;;;;;;;4.28;2.65;;;;;;;14.94;100.00;101431.28;4852657;29;20057;-78
2022/07/01 04:38:54;;;;;;;4.53;2.78;;;;;;;14.97;100.00;101433.91;4834186;29;20045;-78
2022/07/01 04:44:10;;;;;;;5.00;3.10;;;;;;;14.99;100.00;101448.06;4841357;29;20064;-77
2022/07/01 04:46:38;;;;;;;8.32;3.42;;;;;;;15.02;100.00;101450.66;4843866;29;20045;-77
2022/07/01 04:49:07;;;;;;;6.13;3.00;;;;;;;15.00;100.00;101451.59;4830574;29;20064;-77
2022/07/01 04:51:35;;;;;;;5.40;3.70;;;;;;;15.00;100.00;101460.41;4851891;29;20518;-77
2022/07/01 04:54:06;;;;;;;3.83;3.38;;;;;;;15.04;100.00;101468.38;4854407;29;20052;-78
2022/07/01 04:56:35;;;;;;;5.28;4.05;;;;;;;15.03;100.00;101472.81;4812511;29;20100;-78
2022/07/01 04:59:12;;;;;;;6.30;4.22;;;;;;;15.05;100.00;101473.69;4843546;29;20053;-78
2022/07/01 05:01:44;;;;;;;8.40;3.53;;;;;;;15.03;100.00;101486.09;4834938;29;20045;-77
2022/07/01 05:04:15;;;;;;;5.90;3.33;;;;;;;15.06;100.00;101479.88;4850825;29;20045;-77
2022/07/01 05:06:44;;;;;;;4.70;3.38;;;;;;;15.07;100.00;101484.28;4818662;29;20038;-77
2022/07/01 05:09:12;;;;;;;5.05;3.88;;;;;;;15.08;100.00;101489.56;4853885;29;20522;-77
2022/07/01 05:11:41;;;;;;;6.85;3.45;;;;;;;15.07;100.00;101487.81;4792683;29;20046;-77
2022/07/01 05:14:09;;;;;;;4.88;3.78;;;;;;;15.09;100.00;101485.16;4855900;29;20411;-78
2022/07/01 05:16:38;;;;;;;5.72;3.83;;;;;;;15.11;100.00;101492.22;4836895;29;20053;-78
2022/07/01 05:21:56;;;;;;;6.18;3.70;;;;;;;15.16;100.00;101485.13;4843746;29;20145;-78
2022/07/01 05:24:28;;;;;;;6.88;4.25;;;;;;;15.19;100.00;101492.19;4869578;29;20053;-78
2022/07/01 05:26:57;;;;;;;5.80;3.53;;;;;;;15.21;100.00;101485.09;4821041;29;20630;-79
2022/07/01 05:29:26;;;;;;;5.03;3.67;;;;;;;15.20;100.00;101494.81;4851963;29;20053;-78
2022/07/01 05:31:54;;;;;;;6.53;4.35;;;;;;;15.20;100.00;101492.16;4851784;29;20165;-78
2022/07/01 05:34:23;;;;;;;3.97;3.63;;;;;;;15.21;100.00;101493.91;4846290;29;20049;-78
2022/07/01 05:36:52;;;;;;;6.65;4.38;;;;;;;15.25;100.00;101501.88;4848775;29;20046;-78
2022/07/01 05:39:20;;;;;;;6.78;4.15;;;;;;;15.27;100.00;101505.41;4869879;29;20062;-77
2022/07/01 05:41:49;;;;;;;5.72;4.60;;;;;;;15.29;100.00;101501.88;4866163;29;20332;-77
2022/07/01 05:44:18;;;;;;;11.80;4.30;;;;;;;15.33;100.00;101505.34;4786956;29;20033;-77
2022/07/01 05:46:46;;;;;;;4.80;4.30;;;;;;;15.34;100.00;101499.19;4850607;29;20160;-77
2022/07/01 05:49:17;;;;;;;8.35;4.95;;;;;;;15.35;100.00;101507.13;4832599;29;20053;-78
2022/07/01 05:51:45;;;;;;;5.32;4.68;;;;;;;15.38;100.00;101501.78;4850684;29;20251;-78
2022/07/01 05:54:14;;;;;;;8.13;5.63;;;;;;;15.40;100.00;101509.75;4823228;29;20381;-77
2022/07/01 05:56:43;;;;;;;7.72;5.57;;;;;;;15.42;100.00;101499.13;4850394;29;20142;-80
2022/07/01 05:59:12;;;;;;;6.72;5.05;;;;;;;15.39;100.00;101503.56;4807198;29;20049;-78
2022/07/01 06:01:40;;;;;;;9.20;6.72;;;;;;;15.40;100.00;101505.31;4850858;29;20159;-79
2022/07/01 06:04:09;;;;;;;10.15;7.22;;;;;;;15.42;100.00;101507.09;4840101;29;20054;-79
2022/07/01 06:06:37;;;;;;;9.35;7.10;;;;;;;15.42;100.00;101507.97;4829202;29;20058;-78
2022/07/01 06:09:06;;;;;;;13.45;8.18;;;;;;;15.44;100.00;101503.53;4840246;29;20053;-79
2022/07/01 06:11:34;;;;;;;11.73;8.30;;;;;;;15.44;100.00;101518.59;4868313;29;20399;-78
2022/07/01 06:14:02;;;;;;;11.88;8.52;;;;;;;15.44;100.00;101516.81;4869844;29;20060;-78
2022/07/01 06:16:31;;;;;;;11.75;8.35;;;;;;;15.48;100.00;101522.97;4805266;29;20037;-79
2022/07/01 06:18:59;;;;;;;13.85;9.73;;;;;;;15.50;100.00;101523.84;4852688;29;20037;-77
2022/07/01 06:21:28;;;;;;;19.52;10.07;;;;;;;15.54;100.00;101517.66;4834049;29;20049;-78
2022/07/01 06:23:57;;;;;;;11.35;10.15;;;;;;;15.54;100.00;101517.66;4872104;29;20045;-78
2022/07/01 06:26:25;;;;;;;16.02;9.98;;;;;;;15.53;100.00;101511.44;4826684;29;20057;-78
2022/07/01 06:28:54;;;;;;;14.00;9.55;;;;;;;15.58;100.00;101512.28;4839599;29;20233;-78
2022/07/01 06:31:23;;;;;;;16.40;9.65;;;;;;;15.61;100.00;101511.38;4822775;29;20053;-80
2022/07/01 06:33:52;;;;;;;11.35;9.80;;;;;;;15.64;100.00;101515.81;4839696;29;20080;-79
2022/07/01 06:36:20;;;;;;;13.07;9.43;;;;;;;15.69;100.00;101500.69;4849470;29;20057;-78
2022/07/01 06:38:52;;;;;;;13.25;9.77;;;;;;;15.67;100.00;101494.50;4840800;29;20259;-78
2022/07/01 06:41:26;;;;;;;13.25;10.05;;;;;;;15.70;100.00;101497.16;4823975;29;20064;-78
2022/07/01 06:43:57;;;;;;;13.10;10.93;;;;;;;15.74;100.00;101499.78;4826966;29;20256;-77
2022/07/01 06:46:26;;;;;;;14.63;10.80;;;;;;;15.75;100.00;101493.59;4816480;29;20504;-78
2022/07/01 06:48:55;;;;;;;16.55;11.43;;;;;;;15.78;100.00;101492.69;4853750;29;20162;-79
2022/07/01 06:51:25;;;;;;;15.32;11.27;;;;;;;15.78;100.00;101488.28;4840696;29;20065;-77
2022/07/01 06:53:56;;;;;;;16.08;11.70;;;;;;;15.84;100.00;101489.09;4822270;29;20052;-78
2022/07/01 06:56:25;;;;;;;18.42;12.60;;;;;;;15.89;100.00;101493.47;4847947;29;20054;-78
2022/07/01 06:58:55;;;;;;;16.67;13.05;;;;;;;15.97;100.00;101488.09;4855741;29;20053;-78
2022/07/01 07:01:25;;;;;;;16.00;12.48;;;;;;;16.03;100.00;101500.44;4812761;29;20061;-79
2022/07/01 07:03:55;;;;;;;13.90;11.65;;;;;;;16.06;100.00;101497.78;4848650;29;20056;-78
2022/07/01 07:06:25;;;;;;;17.42;11.45;;;;;;;16.10;100.00;101502.16;4868064;29;20053;-79
2022/07/01 07:08:53;;;;;;;18.93;13.70;;;;;;;16.12;100.00;101508.34;4834138;29;20380;-78
2022/07/01 07:11:27;;;;;;;17.98;12.80;;;;;;;16.12;100.00;101503.94;4869127;29;20425;-78
2022/07/01 07:13:55;;;;;;;18.25;12.75;;;;;;;16.18;100.00;101505.63;4841053;29;20054;-79
2022/07/01 07:16:24;;;;;;;16.40;11.60;;;;;;;16.23;100.00;101511.78;4829214;29;20169;-79
2022/07/01 07:18:55;;;;;;;17.98;12.18;;;;;;;16.25;100.00;101503.78;4826506;29;20042;-77
2022/07/01 07:21:23;;;;;;;15.88;11.27;;;;;;;16.33;100.00;101501.94;4874944;29;20073;-79
2022/07/01 07:23:52;;;;;;;16.13;10.75;;;;;;;16.42;100.00;101506.28;4870070;29;20056;-78
2022/07/01 07:26:21;;;;;;;19.60;10.75;;;;;;;16.48;100.00;101522.19;4854943;29;20272;-79
2022/07/01 07:28:51;;;;;;;14.25;9.95;;;;;;;16.59;100.00;101512.28;4850305;29;20049;-78
2022/07/01 07:31:19;;;;;;;17.10;9.85;;;;;;;16.71;100.00;101509.50;4842707;29;20049;-77
2022/07/01 07:33:48;;;;;;;11.70;8.98;;;;;;;16.76;100.00;101507.66;4839600;29;20479;-78
2022/07/01 07:36:16;;;;;;;11.38;8.98;;;;;;;16.80;100.00;101513.81;4835893;29;20053;-77
2022/07/01 07:38:45;;;;;;;14.15;8.68;;;;;;;16.88;100.00;101516.44;4829159;29;20079;-78
2022/07/01 07:41:13;;;;;;;12.60;8.73;;;;;;;17.00;100.00;101523.41;4823038;29;20045;-78
2022/07/01 07:43:42;;;;;;;14.68;10.18;;;;;;;17.07;100.00;101530.38;4847194;29;20263;-77
2022/07/01 07:46:11;;;;;;;11.10;9.63;;;;;;;17.17;100.00;101521.41;4805141;29;20826;-76
2022/07/01 07:48:41;;;;;;;14.48;10.10;;;;;;;17.22;100.00;101538.19;4793622;29;20073;-77
2022/07/01 07:51:14;;;;;;;13.60;9.40;;;;;;;17.26;100.00;101552.34;4857233;29;20049;-77
2022/07/01 07:53:43;;;;;;;14.93;10.00;;;;;;;17.25;100.00;101553.25;4858975;29;20046;-77
2022/07/01 07:56:11;;;;;;;11.75;8.52;;;;;;;17.24;100.00;101563.03;4860566;29;20064;-77
2022/07/01 07:58:41;;;;;;;14.15;9.73;;;;;;;17.22;100.00;101566.59;4863994;29;20041;-77
2022/07/01 08:01:10;;;;;;;10.70;8.77;;;;;;;17.26;100.00;101560.34;4844972;29;20054;-77
2022/07/01 08:03:45;;;;;;;14.35;10.50;;;;;;;17.28;100.00;101559.41;4840747;29;20079;-78
2022/07/01 08:06:14;;;;;;;12.52;9.52;;;;;;;17.31;100.00;101553.16;4835668;29;20574;-78
2022/07/01 08:08:43;;;;;;;17.75;10.98;;;;;;;17.33;100.00;101564.66;4865250;29;20041;-77
2022/07/01 08:11:12;;;;;;;15.95;10.85;;;;;;;17.35;100.00;101570.84;4853159;29;20324;-78
2022/07/01 08:13:40;;;;;;;18.33;12.57;;;;;;;17.36;100.00;101574.44;4834453;29;20046;-77
2022/07/01 08:16:11;;;;;;;15.38;12.20;;;;;;;17.34;100.00;101569.97;4865224;29;20049;-77
2022/07/01 08:18:40;;;;;;;16.20;12.05;;;;;;;17.34;100.00;101577.97;4834305;29;20053;-77
2022/07/01 08:21:09;;;;;;;15.27;13.77;;;;;;;17.39;100.00;101580.59;4835508;29;20049;-77
2022/07/01 08:23:37;;;;;;;15.45;12.70;;;;;;;17.44;100.00;101573.41;4854043;29;20053;-77
2022/07/01 08:26:06;;;;;;;13.43;11.65;;;;;;;17.56;100.00;101584.78;4842050;29;20521;-77
2022/07/01 08:28:34;;;;;;;15.13;10.82;;;;;;;17.66;100.00;101594.44;4867451;29;20143;-77
2022/07/01 08:31:03;;;;;;;13.93;11.35;;;;;;;17.80;100.00;101589.75;4836850;29;20068;-77
2022/07/01 08:33:32;;;;;;;15.23;11.75;;;;;;;17.86;100.00;101597.72;4849249;29;20411;-77
2022/07/01 08:36:01;;;;;;;14.00;10.98;;;;;;;17.92;100.00;101594.97;4810414;29;23360;-78
2022/07/01 08:38:29;;;;;;;15.73;11.77;;;;;;;17.96;100.00;101590.47;4858366;29;20049;-78
2022/07/01 08:40:58;;;;;;;14.13;11.65;;;;;;;18.00;100.00;101594.84;4836163;29;20049;-78
2022/07/01 08:43:28;;;;;;;13.52;10.10;;;;;;;17.99;100.00;101590.38;4839739;29;20057;-78
2022/07/01 08:45:59;;;;;;;14.32;11.23;;;;;;;18.06;100.00;101591.19;4862398;29;20056;-78
2022/07/01 08:48:28;;;;;;;13.63;11.00;;;;;;;18.10;100.00;101590.22;4839385;29;20061;-78
2022/07/01 08:50:57;;;;;;;13.57;9.52;;;;;;;18.11;100.00;101579.53;4813485;29;20041;-79
2022/07/01 08:53:27;;;;;;;12.05;9.05;;;;;;;18.16;100.00;101581.25;4850318;29;20068;-84
2022/07/01 08:58:47;;;;;;;16.05;10.82;;;;;;;18.30;100.00;101601.44;4831156;29;20060;-78
2022/07/01 09:01:21;;;;;;;13.05;9.98;;;;;;;18.22;100.00;101610.47;4845414;29;20593;-78
2022/07/01 09:03:56;;;;;;;11.27;9.93;;;;;;;18.20;100.00;101613.16;4835121;29;20063;-77
2022/07/01 09:06:29;;;;;;;13.52;10.15;;;;;;;18.19;100.00;101610.56;4805909;29;20053;-77
2022/07/01 09:09:12;;;;;;;12.07;10.15;;;;;;;18.17;100.00;101601.69;4848720;29;20045;-79
2022/07/01 09:11:45;;;;;;;11.60;9.80;;;;;;;18.13;100.00;101590.19;4861452;29;20050;-79
2022/07/01 09:14:15;;;;;;;10.05;9.02;;;;;;;18.14;100.00;101597.28;4857043;29;20065;-78
2022/07/01 09:16:52;;;;;;;11.40;9.13;;;;;;;18.11;100.00;101592.88;4845084;29;20222;-77
2022/07/01 09:19:22;;;;;;;14.68;10.07;;;;;;;18.08;100.00;101589.38;4836736;29;20053;-78
2022/07/01 09:22:00;;;;;;;12.55;9.25;;;;;;;18.20;100.00;101588.28;4825311;29;20057;-77
2022/07/01 09:24:36;;;;;;;15.00;9.95;;;;;;;18.36;100.00;101594.25;4864638;29;20399;-77
2022/07/01 09:27:11;;;;;;;10.32;9.27;;;;;;;18.50;100.00;101595.75;4838797;29;20185;-76
2022/07/01 09:29:49;;;;;;;8.98;8.07;;;;;;;18.69;100.00;101611.44;4860564;29;20451;-76
2022/07/01 09:32:20;;;;;;;11.35;7.88;;;;;;;18.76;100.00;101617.56;4845751;29;20057;-76
2022/07/01 09:34:51;;;;;;;13.55;8.45;;;;;;;18.84;100.00;101618.31;4836498;29;20049;-76
2022/07/01 09:37:25;;;;;;;10.30;7.50;;;;;;;18.93;100.00;101615.47;4822890;29;20416;-77
2022/07/01 09:39:56;;;;;;;8.77;6.93;;;;;;;18.93;100.00;101622.63;4852039;29;20503;-77
2022/07/01 09:42:27;;;;;;;7.88;5.50;;;;;;;18.97;100.00;101619.84;4856777;29;20045;-77
2022/07/01 09:45:06;;;;;;;8.18;5.20;;;;;;;19.09;100.00;101624.97;4843802;29;20038;-76
2022/07/01 09:47:38;;;;;;;9.57;5.38;;;;;;;19.33;100.00;101635.16;4847626;29;20075;-76
2022/07/01 09:50:07;;;;;;;6.55;4.55;;;;;;;19.51;100.00;101628.53;4833312;29;20160;-78
2022/07/01 09:52:38;;;;;;;6.78;4.53;;;;;;;19.63;100.00;101644.34;4807192;29;20061;-77
2022/07/01 09:55:12;;;;;;;4.63;3.90;;;;;;;19.82;100.00;101635.00;4861934;29;20153;-77
2022/07/01 09:57:41;;;;;;;6.28;4.47;;;;;;;20.00;100.00;101638.16;4837049;29;20072;-77
2022/07/01 10:00:10;;;;;;;6.85;4.43;;;;;;;20.04;100.00;101637.19;4860959;29;20068;-76
2022/07/01 10:02:39;;;;;;;6.95;3.80;;;;;;;20.05;100.00;101644.28;4865191;29;20064;-77
2022/07/01 10:05:14;;;;;;;5.47;3.75;;;;;;;20.04;100.00;101631.84;4854011;29;20489;-77
2022/07/01 10:08:01;;;;;;;5.93;3.22;;;;;;;20.10;100.00;101636.19;4850091;29;20396;-83
2022/07/01 10:10:49;;;;;;;4.13;2.28;;;;;;;20.16;99.17;101636.88;4838747;29;20077;-79
2022/07/01 10:13:23;;;;;;;6.68;2.90;;;;;;;20.19;97.93;101633.28;4862133;29;20057;-78
2022/07/01 10:15:54;;;;;;;5.60;2.72;;;;;;;20.15;98.77;101637.81;4851093;29;20088;-77
2022/07/01 10:18:26;;;;;;;4.43;2.80;;;;;;;20.12;99.33;101637.88;4856664;29;20065;-78
2022/07/01 10:20:57;;;;;;;6.30;3.22;;;;;;;20.13;99.65;101647.69;4827801;29;20264;-77
2022/07/01 10:23:43;;;;;;;6.38;3.17;;;;;;;20.08;96.99;101660.28;4849944;29;20049;-78
2022/07/01 10:26:12;;;;;;;9.30;3.60;;;;;;;20.04;98.64;101659.47;4851322;29;20516;-78
2022/07/01 10:28:45;;;;;;;6.35;3.67;;;;;;;19.94;98.77;101652.56;4845773;29;20530;-78
2022/07/01 10:31:18;;;;;;;7.68;3.35;;;;;;;19.89;98.47;101664.31;4847679;29;20037;-79
2022/07/01 10:33:53;;;;;;;5.00;3.00;;;;;;;19.88;97.50;101657.19;4859449;29;20053;-79
2022/07/01 10:36:21;;;;;;;5.45;2.60;;;;;;;19.92;98.84;101656.19;4846624;29;20038;-79
2022/07/01 10:39:13;;;;;;;7.05;2.78;;;;;;;19.96;94.89;101656.09;4852208;29;20204;-78
2022/07/01 10:41:56;;;;;;;8.00;3.20;;;;;;;19.97;95.68;101641.81;4816063;29;20064;-78
2022/07/01 10:45:09;;;;;;;4.95;2.38;;;;;;;20.06;92.38;101638.03;4842440;29;20049;-78
2022/07/01 10:47:40;;;;;;;6.32;3.55;;;;;;;20.11;95.61;101638.78;4849644;29;20065;-78
2022/07/01 10:50:12;;;;;;;6.20;2.72;;;;;;;20.20;94.20;101641.25;4865402;29;20069;-79
2022/07/01 10:53:01;;;;;;;3.53;2.50;;;;;;;20.23;93.22;101634.97;4838678;29;20053;-78
2022/07/01 10:55:38;;;;;;;5.68;2.50;;;;;;;20.31;92.80;101632.09;4842757;29;20041;-81
2022/07/01 10:58:10;;;;;;;5.25;2.45;;;;;;;20.41;92.90;101628.25;4851801;29;20053;-78
2022/07/01 11:00:44;;;;;;;3.30;2.03;;;;;;;20.60;91.93;101620.66;4832696;29;20041;-78
2022/07/01 11:03:16;;;;;;;4.22;2.25;;;;;;;20.75;91.23;101635.44;4839883;29;20299;-79
2022/07/01 11:05:47;;;;;;;4.55;2.67;;;;;;;20.92;89.78;101630.50;4849831;29;20049;-79
2022/07/01 11:08:16;;;;;;;5.30;2.72;;;;;;;21.13;91.53;101630.81;4840809;29;20057;-79
2022/07/01 11:10:56;;;;;;;3.85;1.77;;;;;;;21.16;87.29;101631.63;4868804;29;20257;-79
2022/07/01 11:13:26;;;;;;;3.70;1.95;;;;;;;21.08;87.14;101628.28;4829414;29;20053;-79
2022/07/01 11:15:56;;;;;;;3.95;2.95;;;;;;;21.02;88.15;101634.69;4851288;29;20041;-80
2022/07/01 11:18:25;;;;;;;7.95;2.97;;;;;;;20.95;87.90;101640.28;4827420;29;20053;-79
2022/07/01 11:21:06;;;;;;;3.53;2.50;;;;;;;20.82;86.15;101635.22;4866152;29;21059;-79
2022/07/01 11:23:35;;;;;;;5.43;2.63;;;;;;;20.76;88.39;101634.53;4830432;29;20068;-79
2022/07/01 11:26:21;;;;;;;4.40;2.35;;;;;;;20.75;88.22;101624.72;4839114;29;20323;-78
2022/07/01 11:28:49;;;;;;;4.28;2.50;;;;;;;20.73;89.14;101623.91;4792935;29;20177;-78
2022/07/01 11:31:32;;;;;;;6.32;2.53;;;;;;;20.81;90.87;101629.91;4830321;29;20057;-78
2022/07/01 11:34:01;;;;;;;4.78;3.30;;;;;;;20.83;91.11;101620.94;4825211;29;20283;-79
2022/07/01 11:39:27;;;;;;;4.90;3.00;;;;;;;20.69;88.99;101623.09;4844335;29;20057;-77
2022/07/01 11:41:59;;;;;;;6.28;2.75;;;;;;;20.79;89.37;101618.38;4835333;29;20415;-79
2022/07/01 11:44:49;;;;;;;4.18;2.65;;;;;;;20.89;89.60;101622.56;4829184;29;20060;-80
2022/07/01 11:47:25;;;;;;;4.53;2.60;;;;;;;20.96;87.80;101608.09;4843917;29;20399;-80
2022/07/01 11:49:55;;;;;;;6.28;3.13;;;;;;;21.00;88.77;101612.44;4836866;29;20053;-80